sensor_id;sensor_type;location;lat;lon;timestamp;P1;durP1;ratioP1;P2;durP2;ratioP2
74503;SDS011;62988;55.776;37.544;2023-05-08T00:01:44;16.70;;;4.43;;
74503;SDS011;62988;55.776;37.544;2023-05-08T00:04:10;9.38;;;3.63;;
74503;SDS011;62988;55.776;37.544;2023-05-08T00:06:35;11.40;;;4.47;;
74503;SDS011;62988;55.776;37.544;2023-05-08T00:09:00;11.83;;;4.53;;
74503;SDS011;62988;55.776;37.544;2023-05-08T00:11:26;13.50;;;4.10;;
74503;SDS011;62988;55.776;37.544;2023-05-08T00:13:51;15.07;;;4.65;;
74503;SDS011;62988;55.776;37.544;2023-05-08T00:16:17;8.57;;;4.38;;
74503;SDS011;62988;55.776;37.544;2023-05-08T00:18:42;9.33;;;4.03;;
74503;SDS011;62988;55.776;37.544;2023-05-08T00:21:07;12.88;;;4.20;;
74503;SDS011;62988;55.776;37.544;2023-05-08T00:23:33;10.27;;;4.03;;
74503;SDS011;62988;55.776;37.544;2023-05-08T00:25:58;9.82;;;3.90;;
74503;SDS011;62988;55.776;37.544;2023-05-08T00:28:24;10.65;;;4.28;;
74503;SDS011;62988;55.776;37.544;2023-05-08T00:30:49;9.68;;;4.40;;
74503;SDS011;62988;55.776;37.544;2023-05-08T00:33:15;12.55;;;4.68;;
74503;SDS011;62988;55.776;37.544;2023-05-08T00:35:40;9.18;;;4.03;;
74503;SDS011;62988;55.776;37.544;2023-05-08T00:38:07;11.35;;;4.72;;
74503;SDS011;62988;55.776;37.544;2023-05-08T00:40:32;10.20;;;4.45;;
74503;SDS011;62988;55.776;37.544;2023-05-08T00:42:57;14.37;;;4.90;;
74503;SDS011;62988;55.776;37.544;2023-05-08T00:45:23;10.80;;;4.17;;
74503;SDS011;62988;55.776;37.544;2023-05-08T00:47:48;10.10;;;3.97;;
74503;SDS011;62988;55.776;37.544;2023-05-08T00:50:14;14.75;;;4.53;;
74503;SDS011;62988;55.776;37.544;2023-05-08T00:52:39;13.57;;;4.57;;
74503;SDS011;62988;55.776;37.544;2023-05-08T00:55:05;12.48;;;5.07;;
74503;SDS011;62988;55.776;37.544;2023-05-08T00:57:31;8.60;;;4.30;;
74503;SDS011;62988;55.776;37.544;2023-05-08T00:59:58;12.02;;;4.85;;
74503;SDS011;62988;55.776;37.544;2023-05-08T01:02:25;9.00;;;4.18;;
74503;SDS011;62988;55.776;37.544;2023-05-08T01:04:51;12.30;;;4.90;;
74503;SDS011;62988;55.776;37.544;2023-05-08T01:07:17;12.85;;;4.68;;
74503;SDS011;62988;55.776;37.544;2023-05-08T01:09:43;12.98;;;5.13;;
74503;SDS011;62988;55.776;37.544;2023-05-08T01:12:11;10.60;;;4.73;;
74503;SDS011;62988;55.776;37.544;2023-05-08T01:17:27;11.30;;;5.45;;
74503;SDS011;62988;55.776;37.544;2023-05-08T01:20:04;11.18;;;4.53;;
74503;SDS011;62988;55.776;37.544;2023-05-08T01:32:42;15.30;;;3.97;;
74503;SDS011;62988;55.776;37.544;2023-05-08T01:35:23;8.98;;;3.83;;
74503;SDS011;62988;55.776;37.544;2023-05-08T01:40:20;9.13;;;4.22;;
74503;SDS011;62988;55.776;37.544;2023-05-08T01:45:33;10.23;;;4.15;;
74503;SDS011;62988;55.776;37.544;2023-05-08T01:48:06;10.50;;;3.95;;
74503;SDS011;62988;55.776;37.544;2023-05-08T01:50:35;8.40;;;3.95;;
74503;SDS011;62988;55.776;37.544;2023-05-08T01:53:15;12.07;;;4.32;;
74503;SDS011;62988;55.776;37.544;2023-05-08T01:55:41;11.98;;;4.88;;
74503;SDS011;62988;55.776;37.544;2023-05-08T01:58:08;10.80;;;4.68;;
74503;SDS011;62988;55.776;37.544;2023-05-08T02:00:35;9.45;;;4.65;;
74503;SDS011;62988;55.776;37.544;2023-05-08T02:03:02;12.10;;;4.53;;
74503;SDS011;62988;55.776;37.544;2023-05-08T02:05:30;12.95;;;5.13;;
74503;SDS011;62988;55.776;37.544;2023-05-08T02:07:55;10.25;;;4.47;;
74503;SDS011;62988;55.776;37.544;2023-05-08T02:10:21;11.73;;;4.28;;
74503;SDS011;62988;55.776;37.544;2023-05-08T02:12:48;12.68;;;4.65;;
74503;SDS011;62988;55.776;37.544;2023-05-08T02:15:14;7.55;;;4.10;;
74503;SDS011;62988;55.776;37.544;2023-05-08T02:17:40;10.82;;;4.85;;
74503;SDS011;62988;55.776;37.544;2023-05-08T02:20:06;8.77;;;4.88;;
74503;SDS011;62988;55.776;37.544;2023-05-08T02:22:32;9.30;;;4.32;;
74503;SDS011;62988;55.776;37.544;2023-05-08T02:24:58;14.07;;;4.97;;
74503;SDS011;62988;55.776;37.544;2023-05-08T02:27:25;16.98;;;6.10;;
74503;SDS011;62988;55.776;37.544;2023-05-08T02:29:51;10.27;;;4.93;;
74503;SDS011;62988;55.776;37.544;2023-05-08T02:32:18;18.83;;;5.50;;
74503;SDS011;62988;55.776;37.544;2023-05-08T02:34:44;13.43;;;5.70;;
74503;SDS011;62988;55.776;37.544;2023-05-08T02:37:09;16.77;;;5.22;;
74503;SDS011;62988;55.776;37.544;2023-05-08T02:39:36;19.85;;;5.15;;
74503;SDS011;62988;55.776;37.544;2023-05-08T02:42:02;11.65;;;4.93;;
74503;SDS011;62988;55.776;37.544;2023-05-08T02:44:28;15.25;;;5.32;;
74503;SDS011;62988;55.776;37.544;2023-05-08T02:47:04;18.35;;;6.88;;
74503;SDS011;62988;55.776;37.544;2023-05-08T02:49:32;12.57;;;5.32;;
74503;SDS011;62988;55.776;37.544;2023-05-08T02:52:04;14.15;;;6.28;;
74503;SDS011;62988;55.776;37.544;2023-05-08T02:54:39;16.13;;;6.60;;
74503;SDS011;62988;55.776;37.544;2023-05-08T02:57:17;13.00;;;5.18;;
74503;SDS011;62988;55.776;37.544;2023-05-08T02:59:49;15.27;;;5.95;;
74503;SDS011;62988;55.776;37.544;2023-05-08T03:02:17;19.20;;;5.82;;
74503;SDS011;62988;55.776;37.544;2023-05-08T03:04:49;24.90;;;6.80;;
74503;SDS011;62988;55.776;37.544;2023-05-08T03:07:20;31.20;;;6.93;;
74503;SDS011;62988;55.776;37.544;2023-05-08T03:12:13;25.77;;;6.67;;
74503;SDS011;62988;55.776;37.544;2023-05-08T03:14:42;16.67;;;6.05;;
74503;SDS011;62988;55.776;37.544;2023-05-08T03:17:08;13.25;;;5.53;;
74503;SDS011;62988;55.776;37.544;2023-05-08T03:19:35;19.92;;;6.43;;
74503;SDS011;62988;55.776;37.544;2023-05-08T03:22:01;14.13;;;5.93;;
74503;SDS011;62988;55.776;37.544;2023-05-08T03:24:28;15.35;;;6.78;;
74503;SDS011;62988;55.776;37.544;2023-05-08T03:26:55;16.60;;;5.72;;
74503;SDS011;62988;55.776;37.544;2023-05-08T03:29:20;11.63;;;5.43;;
74503;SDS011;62988;55.776;37.544;2023-05-08T03:31:45;15.48;;;5.93;;
74503;SDS011;62988;55.776;37.544;2023-05-08T03:34:11;13.57;;;5.38;;
74503;SDS011;62988;55.776;37.544;2023-05-08T03:36:38;16.70;;;5.82;;
74503;SDS011;62988;55.776;37.544;2023-05-08T03:39:03;13.93;;;5.15;;
74503;SDS011;62988;55.776;37.544;2023-05-08T03:41:29;13.57;;;5.75;;
74503;SDS011;62988;55.776;37.544;2023-05-08T03:43:54;10.38;;;5.45;;
74503;SDS011;62988;55.776;37.544;2023-05-08T03:46:20;10.23;;;5.28;;
74503;SDS011;62988;55.776;37.544;2023-05-08T03:48:46;11.23;;;5.10;;
74503;SDS011;62988;55.776;37.544;2023-05-08T03:51:12;13.52;;;5.32;;
74503;SDS011;62988;55.776;37.544;2023-05-08T03:53:37;10.15;;;5.70;;
74503;SDS011;62988;55.776;37.544;2023-05-08T03:56:03;13.80;;;6.07;;
74503;SDS011;62988;55.776;37.544;2023-05-08T04:01:03;12.13;;;5.77;;
74503;SDS011;62988;55.776;37.544;2023-05-08T04:03:31;13.15;;;5.65;;
74503;SDS011;62988;55.776;37.544;2023-05-08T04:08:31;12.88;;;5.05;;
74503;SDS011;62988;55.776;37.544;2023-05-08T04:13:30;12.32;;;5.20;;
74503;SDS011;62988;55.776;37.544;2023-05-08T04:16:05;10.05;;;5.03;;
74503;SDS011;62988;55.776;37.544;2023-05-08T04:18:31;10.93;;;5.88;;
74503;SDS011;62988;55.776;37.544;2023-05-08T04:20:58;10.35;;;5.13;;
74503;SDS011;62988;55.776;37.544;2023-05-08T04:23:25;12.75;;;5.65;;
74503;SDS011;62988;55.776;37.544;2023-05-08T04:25:51;10.90;;;5.38;;
74503;SDS011;62988;55.776;37.544;2023-05-08T04:28:17;16.48;;;5.90;;
74503;SDS011;62988;55.776;37.544;2023-05-08T04:30:43;11.20;;;4.80;;
74503;SDS011;62988;55.776;37.544;2023-05-08T04:33:09;14.85;;;5.43;;
74503;SDS011;62988;55.776;37.544;2023-05-08T04:35:35;11.25;;;5.13;;
74503;SDS011;62988;55.776;37.544;2023-05-08T04:38:01;10.10;;;5.03;;
74503;SDS011;62988;55.776;37.544;2023-05-08T04:40:26;13.90;;;4.93;;
74503;SDS011;62988;55.776;37.544;2023-05-08T04:42:51;11.68;;;5.00;;
74503;SDS011;62988;55.776;37.544;2023-05-08T04:45:17;12.17;;;4.60;;
74503;SDS011;62988;55.776;37.544;2023-05-08T04:47:42;6.97;;;3.38;;
74503;SDS011;62988;55.776;37.544;2023-05-08T04:50:08;9.93;;;3.88;;
74503;SDS011;62988;55.776;37.544;2023-05-08T04:52:33;8.05;;;4.00;;
74503;SDS011;62988;55.776;37.544;2023-05-08T04:54:59;7.35;;;3.38;;
74503;SDS011;62988;55.776;37.544;2023-05-08T04:57:24;9.45;;;3.85;;
74503;SDS011;62988;55.776;37.544;2023-05-08T04:59:50;7.10;;;3.30;;
74503;SDS011;62988;55.776;37.544;2023-05-08T05:02:15;7.27;;;2.87;;
74503;SDS011;62988;55.776;37.544;2023-05-08T05:04:40;7.50;;;3.47;;
74503;SDS011;62988;55.776;37.544;2023-05-08T05:07:06;8.00;;;3.53;;
74503;SDS011;62988;55.776;37.544;2023-05-08T05:09:31;7.60;;;3.07;;
74503;SDS011;62988;55.776;37.544;2023-05-08T05:12:01;6.15;;;2.22;;
74503;SDS011;62988;55.776;37.544;2023-05-08T05:14:26;6.60;;;2.80;;
74503;SDS011;62988;55.776;37.544;2023-05-08T05:16:52;5.63;;;2.50;;
74503;SDS011;62988;55.776;37.544;2023-05-08T05:19:17;11.05;;;2.63;;
74503;SDS011;62988;55.776;37.544;2023-05-08T05:21:43;15.57;;;2.65;;
74503;SDS011;62988;55.776;37.544;2023-05-08T05:24:08;3.73;;;1.80;;
74503;SDS011;62988;55.776;37.544;2023-05-08T05:26:33;3.50;;;1.20;;
74503;SDS011;62988;55.776;37.544;2023-05-08T05:28:59;3.07;;;1.30;;
74503;SDS011;62988;55.776;37.544;2023-05-08T05:31:24;3.37;;;1.53;;
74503;SDS011;62988;55.776;37.544;2023-05-08T05:33:49;3.53;;;1.52;;
74503;SDS011;62988;55.776;37.544;2023-05-08T05:36:15;4.60;;;1.90;;
74503;SDS011;62988;55.776;37.544;2023-05-08T05:38:40;4.05;;;1.70;;
74503;SDS011;62988;55.776;37.544;2023-05-08T05:41:06;4.03;;;1.48;;
74503;SDS011;62988;55.776;37.544;2023-05-08T05:43:31;2.65;;;1.55;;
74503;SDS011;62988;55.776;37.544;2023-05-08T05:46:02;6.72;;;1.65;;
74503;SDS011;62988;55.776;37.544;2023-05-08T05:48:28;3.88;;;1.52;;
74503;SDS011;62988;55.776;37.544;2023-05-08T05:50:53;6.27;;;1.17;;
74503;SDS011;62988;55.776;37.544;2023-05-08T05:53:18;7.23;;;1.30;;
74503;SDS011;62988;55.776;37.544;2023-05-08T05:55:44;3.38;;;1.60;;
74503;SDS011;62988;55.776;37.544;2023-05-08T05:58:09;4.00;;;1.07;;
74503;SDS011;62988;55.776;37.544;2023-05-08T06:00:35;3.28;;;1.10;;
74503;SDS011;62988;55.776;37.544;2023-05-08T06:03:00;2.58;;;1.00;;
74503;SDS011;62988;55.776;37.544;2023-05-08T06:05:26;3.35;;;1.25;;
74503;SDS011;62988;55.776;37.544;2023-05-08T06:07:52;2.97;;;1.30;;
74503;SDS011;62988;55.776;37.544;2023-05-08T06:10:18;2.53;;;0.82;;
74503;SDS011;62988;55.776;37.544;2023-05-08T06:12:44;5.95;;;3.05;;
74503;SDS011;62988;55.776;37.544;2023-05-08T06:15:09;2.88;;;1.10;;
74503;SDS011;62988;55.776;37.544;2023-05-08T06:17:36;3.10;;;0.90;;
74503;SDS011;62988;55.776;37.544;2023-05-08T06:20:01;6.23;;;1.30;;
74503;SDS011;62988;55.776;37.544;2023-05-08T06:22:27;3.05;;;0.82;;
74503;SDS011;62988;55.776;37.544;2023-05-08T06:24:54;20.67;;;4.03;;
74503;SDS011;62988;55.776;37.544;2023-05-08T06:27:20;26.38;;;1.83;;
74503;SDS011;62988;55.776;37.544;2023-05-08T06:29:46;27.73;;;1.77;;
74503;SDS011;62988;55.776;37.544;2023-05-08T06:32:11;3.15;;;0.90;;
74503;SDS011;62988;55.776;37.544;2023-05-08T06:34:37;4.18;;;0.55;;
74503;SDS011;62988;55.776;37.544;2023-05-08T06:37:02;8.10;;;0.60;;
74503;SDS011;62988;55.776;37.544;2023-05-08T06:39:28;1.98;;;0.73;;
74503;SDS011;62988;55.776;37.544;2023-05-08T06:41:53;2.03;;;0.70;;
74503;SDS011;62988;55.776;37.544;2023-05-08T06:44:18;3.92;;;0.50;;
74503;SDS011;62988;55.776;37.544;2023-05-08T06:46:44;5.87;;;0.80;;
74503;SDS011;62988;55.776;37.544;2023-05-08T06:49:09;4.23;;;0.80;;
74503;SDS011;62988;55.776;37.544;2023-05-08T06:51:35;1.30;;;0.57;;
74503;SDS011;62988;55.776;37.544;2023-05-08T06:54:02;3.15;;;0.75;;
74503;SDS011;62988;55.776;37.544;2023-05-08T06:56:31;2.70;;;0.77;;
74503;SDS011;62988;55.776;37.544;2023-05-08T06:58:57;1.30;;;0.50;;
74503;SDS011;62988;55.776;37.544;2023-05-08T07:01:22;4.70;;;0.70;;
74503;SDS011;62988;55.776;37.544;2023-05-08T07:03:47;1.90;;;0.80;;
74503;SDS011;62988;55.776;37.544;2023-05-08T07:06:13;6.43;;;0.90;;
74503;SDS011;62988;55.776;37.544;2023-05-08T07:08:38;2.93;;;0.90;;
74503;SDS011;62988;55.776;37.544;2023-05-08T07:11:03;2.43;;;0.80;;
74503;SDS011;62988;55.776;37.544;2023-05-08T07:13:29;1.90;;;0.70;;
74503;SDS011;62988;55.776;37.544;2023-05-08T07:15:55;2.67;;;0.68;;
74503;SDS011;62988;55.776;37.544;2023-05-08T07:18:20;2.40;;;0.85;;
74503;SDS011;62988;55.776;37.544;2023-05-08T07:20:45;2.40;;;0.93;;
74503;SDS011;62988;55.776;37.544;2023-05-08T07:23:11;3.15;;;0.60;;
74503;SDS011;62988;55.776;37.544;2023-05-08T07:25:36;1.80;;;0.70;;
74503;SDS011;62988;55.776;37.544;2023-05-08T07:28:02;1.60;;;0.67;;
74503;SDS011;62988;55.776;37.544;2023-05-08T07:30:27;1.40;;;0.60;;
74503;SDS011;62988;55.776;37.544;2023-05-08T07:32:52;4.20;;;0.90;;
74503;SDS011;62988;55.776;37.544;2023-05-08T07:35:18;2.63;;;0.75;;
74503;SDS011;62988;55.776;37.544;2023-05-08T07:37:43;1.75;;;0.75;;
74503;SDS011;62988;55.776;37.544;2023-05-08T07:40:09;3.10;;;0.68;;
74503;SDS011;62988;55.776;37.544;2023-05-08T07:42:41;3.88;;;0.70;;
74503;SDS011;62988;55.776;37.544;2023-05-08T07:45:10;1.67;;;0.52;;
74503;SDS011;62988;55.776;37.544;2023-05-08T07:47:36;1.63;;;0.52;;
74503;SDS011;62988;55.776;37.544;2023-05-08T07:50:01;6.25;;;1.05;;
74503;SDS011;62988;55.776;37.544;2023-05-08T07:52:27;1.70;;;0.70;;
74503;SDS011;62988;55.776;37.544;2023-05-08T07:54:52;3.38;;;0.57;;
74503;SDS011;62988;55.776;37.544;2023-05-08T07:57:18;2.00;;;0.70;;
74503;SDS011;62988;55.776;37.544;2023-05-08T07:59:43;2.30;;;0.50;;
74503;SDS011;62988;55.776;37.544;2023-05-08T08:02:08;3.43;;;0.50;;
74503;SDS011;62988;55.776;37.544;2023-05-08T08:04:34;3.10;;;0.88;;
74503;SDS011;62988;55.776;37.544;2023-05-08T08:06:59;2.13;;;0.70;;
74503;SDS011;62988;55.776;37.544;2023-05-08T08:09:24;1.85;;;0.60;;
74503;SDS011;62988;55.776;37.544;2023-05-08T08:11:50;2.53;;;0.75;;
74503;SDS011;62988;55.776;37.544;2023-05-08T08:14:15;2.35;;;0.77;;
74503;SDS011;62988;55.776;37.544;2023-05-08T08:16:40;3.85;;;1.30;;
74503;SDS011;62988;55.776;37.544;2023-05-08T08:19:06;1.40;;;0.50;;
74503;SDS011;62988;55.776;37.544;2023-05-08T08:21:32;1.52;;;0.55;;
74503;SDS011;62988;55.776;37.544;2023-05-08T08:23:57;3.63;;;0.70;;
74503;SDS011;62988;55.776;37.544;2023-05-08T08:26:23;2.55;;;0.70;;
74503;SDS011;62988;55.776;37.544;2023-05-08T08:28:49;3.58;;;0.47;;
74503;SDS011;62988;55.776;37.544;2023-05-08T08:31:15;1.75;;;0.40;;
74503;SDS011;62988;55.776;37.544;2023-05-08T08:33:41;2.15;;;0.50;;
74503;SDS011;62988;55.776;37.544;2023-05-08T08:36:11;1.23;;;0.38;;
74503;SDS011;62988;55.776;37.544;2023-05-08T08:38:37;1.85;;;0.63;;
74503;SDS011;62988;55.776;37.544;2023-05-08T08:41:02;1.40;;;0.47;;
74503;SDS011;62988;55.776;37.544;2023-05-08T08:43:28;1.55;;;0.60;;
74503;SDS011;62988;55.776;37.544;2023-05-08T08:45:53;3.10;;;0.80;;
74503;SDS011;62988;55.776;37.544;2023-05-08T08:48:18;1.70;;;0.73;;
74503;SDS011;62988;55.776;37.544;2023-05-08T08:50:46;4.47;;;0.50;;
74503;SDS011;62988;55.776;37.544;2023-05-08T08:53:16;1.80;;;0.50;;
74503;SDS011;62988;55.776;37.544;2023-05-08T08:55:45;1.20;;;0.43;;
74503;SDS011;62988;55.776;37.544;2023-05-08T09:00:40;3.78;;;0.85;;
74503;SDS011;62988;55.776;37.544;2023-05-08T09:03:05;3.95;;;0.77;;
74503;SDS011;62988;55.776;37.544;2023-05-08T09:05:34;2.70;;;0.50;;
74503;SDS011;62988;55.776;37.544;2023-05-08T09:07:59;1.83;;;0.55;;
74503;SDS011;62988;55.776;37.544;2023-05-08T09:10:25;1.60;;;0.60;;
74503;SDS011;62988;55.776;37.544;2023-05-08T09:12:50;1.45;;;0.60;;
74503;SDS011;62988;55.776;37.544;2023-05-08T09:15:16;2.80;;;0.65;;
74503;SDS011;62988;55.776;37.544;2023-05-08T09:17:41;3.13;;;0.70;;
74503;SDS011;62988;55.776;37.544;2023-05-08T09:20:07;5.30;;;0.60;;
74503;SDS011;62988;55.776;37.544;2023-05-08T09:22:34;5.30;;;0.60;;
74503;SDS011;62988;55.776;37.544;2023-05-08T09:25:00;1.30;;;0.60;;
74503;SDS011;62988;55.776;37.544;2023-05-08T09:27:27;2.05;;;0.60;;
74503;SDS011;62988;55.776;37.544;2023-05-08T09:30:00;1.98;;;0.63;;
74503;SDS011;62988;55.776;37.544;2023-05-08T09:32:31;2.10;;;0.60;;
74503;SDS011;62988;55.776;37.544;2023-05-08T09:34:57;1.30;;;0.50;;
74503;SDS011;62988;55.776;37.544;2023-05-08T09:37:22;2.50;;;0.63;;
74503;SDS011;62988;55.776;37.544;2023-05-08T09:39:48;3.17;;;0.70;;
74503;SDS011;62988;55.776;37.544;2023-05-08T09:42:14;2.33;;;0.50;;
74503;SDS011;62988;55.776;37.544;2023-05-08T09:44:43;3.42;;;0.80;;
74503;SDS011;62988;55.776;37.544;2023-05-08T09:47:13;1.80;;;0.70;;
74503;SDS011;62988;55.776;37.544;2023-05-08T09:49:38;2.38;;;0.73;;
74503;SDS011;62988;55.776;37.544;2023-05-08T09:52:05;6.03;;;2.00;;
74503;SDS011;62988;55.776;37.544;2023-05-08T09:54:30;5.32;;;1.10;;
74503;SDS011;62988;55.776;37.544;2023-05-08T09:56:55;2.47;;;0.63;;
74503;SDS011;62988;55.776;37.544;2023-05-08T09:59:25;5.07;;;1.48;;
74503;SDS011;62988;55.776;37.544;2023-05-08T10:04:16;1.33;;;0.60;;
74503;SDS011;62988;55.776;37.544;2023-05-08T10:06:41;3.20;;;0.70;;
74503;SDS011;62988;55.776;37.544;2023-05-08T10:09:07;2.53;;;0.80;;
74503;SDS011;62988;55.776;37.544;2023-05-08T10:11:32;1.33;;;0.57;;
74503;SDS011;62988;55.776;37.544;2023-05-08T10:13:58;3.05;;;0.60;;
74503;SDS011;62988;55.776;37.544;2023-05-08T10:16:24;3.80;;;0.73;;
74503;SDS011;62988;55.776;37.544;2023-05-08T10:18:51;2.10;;;0.80;;
74503;SDS011;62988;55.776;37.544;2023-05-08T10:23:46;2.30;;;0.70;;
74503;SDS011;62988;55.776;37.544;2023-05-08T10:26:15;2.28;;;0.70;;
74503;SDS011;62988;55.776;37.544;2023-05-08T10:28:54;2.60;;;0.70;;
74503;SDS011;62988;55.776;37.544;2023-05-08T10:31:21;3.30;;;1.10;;
74503;SDS011;62988;55.776;37.544;2023-05-08T10:33:49;4.32;;;0.70;;
74503;SDS011;62988;55.776;37.544;2023-05-08T10:36:15;4.05;;;0.60;;
74503;SDS011;62988;55.776;37.544;2023-05-08T10:38:41;5.15;;;0.68;;
74503;SDS011;62988;55.776;37.544;2023-05-08T10:41:07;2.25;;;0.70;;
74503;SDS011;62988;55.776;37.544;2023-05-08T10:43:33;2.17;;;1.02;;
74503;SDS011;62988;55.776;37.544;2023-05-08T10:46:01;2.75;;;0.80;;
74503;SDS011;62988;55.776;37.544;2023-05-08T10:51:16;3.17;;;0.60;;
74503;SDS011;62988;55.776;37.544;2023-05-08T10:53:49;3.47;;;0.80;;
74503;SDS011;62988;55.776;37.544;2023-05-08T10:56:15;1.95;;;0.70;;
74503;SDS011;62988;55.776;37.544;2023-05-08T10:58:40;2.20;;;0.60;;
74503;SDS011;62988;55.776;37.544;2023-05-08T11:03:32;1.95;;;0.63;;
74503;SDS011;62988;55.776;37.544;2023-05-08T11:06:01;2.83;;;1.00;;
74503;SDS011;62988;55.776;37.544;2023-05-08T11:08:27;3.20;;;1.02;;
74503;SDS011;62988;55.776;37.544;2023-05-08T11:13:28;2.63;;;0.60;;
74503;SDS011;62988;55.776;37.544;2023-05-08T11:15:54;2.47;;;0.75;;
74503;SDS011;62988;55.776;37.544;2023-05-08T11:18:20;3.87;;;1.10;;
74503;SDS011;62988;55.776;37.544;2023-05-08T11:20:56;2.70;;;0.70;;
74503;SDS011;62988;55.776;37.544;2023-05-08T11:23:25;12.95;;;1.30;;
74503;SDS011;62988;55.776;37.544;2023-05-08T11:26:36;3.25;;;1.10;;
74503;SDS011;62988;55.776;37.544;2023-05-08T11:31:17;4.07;;;1.15;;
74503;SDS011;62988;55.776;37.544;2023-05-08T11:33:42;3.67;;;0.95;;
74503;SDS011;62988;55.776;37.544;2023-05-08T11:38:39;3.90;;;0.80;;
74503;SDS011;62988;55.776;37.544;2023-05-08T11:48:28;6.57;;;1.60;;
74503;SDS011;62988;55.776;37.544;2023-05-08T11:50:54;4.85;;;1.42;;
74503;SDS011;62988;55.776;37.544;2023-05-08T11:53:19;3.47;;;1.15;;
74503;SDS011;62988;55.776;37.544;2023-05-08T11:55:48;4.00;;;1.10;;
74503;SDS011;62988;55.776;37.544;2023-05-08T11:58:14;4.57;;;1.02;;
74503;SDS011;62988;55.776;37.544;2023-05-08T12:00:40;5.97;;;1.30;;
74503;SDS011;62988;55.776;37.544;2023-05-08T12:03:10;4.00;;;1.10;;
74503;SDS011;62988;55.776;37.544;2023-05-08T12:05:35;2.00;;;0.90;;
74503;SDS011;62988;55.776;37.544;2023-05-08T12:08:00;4.27;;;1.10;;
74503;SDS011;62988;55.776;37.544;2023-05-08T12:10:28;4.43;;;0.82;;
74503;SDS011;62988;55.776;37.544;2023-05-08T12:12:53;3.25;;;0.90;;
74503;SDS011;62988;55.776;37.544;2023-05-08T12:15:19;3.22;;;0.88;;
74503;SDS011;62988;55.776;37.544;2023-05-08T12:17:44;2.65;;;0.90;;
74503;SDS011;62988;55.776;37.544;2023-05-08T12:22:36;3.22;;;1.08;;
74503;SDS011;62988;55.776;37.544;2023-05-08T12:25:03;2.03;;;0.82;;
74503;SDS011;62988;55.776;37.544;2023-05-08T12:27:28;6.90;;;1.30;;
74503;SDS011;62988;55.776;37.544;2023-05-08T12:29:55;2.88;;;1.02;;
74503;SDS011;62988;55.776;37.544;2023-05-08T12:32:21;3.42;;;0.93;;
74503;SDS011;62988;55.776;37.544;2023-05-08T12:34:46;1.90;;;0.98;;
74503;SDS011;62988;55.776;37.544;2023-05-08T12:37:21;2.93;;;1.03;;
74503;SDS011;62988;55.776;37.544;2023-05-08T12:39:47;3.58;;;0.90;;
74503;SDS011;62988;55.776;37.544;2023-05-08T12:42:12;8.63;;;3.73;;
74503;SDS011;62988;55.776;37.544;2023-05-08T12:44:37;3.47;;;1.70;;
74503;SDS011;62988;55.776;37.544;2023-05-08T12:47:03;3.57;;;1.13;;
74503;SDS011;62988;55.776;37.544;2023-05-08T12:49:29;4.40;;;1.13;;
74503;SDS011;62988;55.776;37.544;2023-05-08T12:54:36;2.90;;;1.23;;
74503;SDS011;62988;55.776;37.544;2023-05-08T12:57:08;4.50;;;1.05;;
74503;SDS011;62988;55.776;37.544;2023-05-08T12:59:34;5.75;;;1.60;;
74503;SDS011;62988;55.776;37.544;2023-05-08T13:02:00;4.38;;;1.15;;
74503;SDS011;62988;55.776;37.544;2023-05-08T13:04:25;6.00;;;1.13;;
74503;SDS011;62988;55.776;37.544;2023-05-08T13:06:56;3.17;;;1.08;;
74503;SDS011;62988;55.776;37.544;2023-05-08T13:09:22;2.78;;;1.10;;
74503;SDS011;62988;55.776;37.544;2023-05-08T13:11:47;2.47;;;0.90;;
74503;SDS011;62988;55.776;37.544;2023-05-08T13:14:13;2.55;;;1.08;;
74503;SDS011;62988;55.776;37.544;2023-05-08T13:16:44;2.78;;;0.90;;
74503;SDS011;62988;55.776;37.544;2023-05-08T13:19:11;4.55;;;1.17;;
74503;SDS011;62988;55.776;37.544;2023-05-08T13:21:38;3.95;;;1.00;;
74503;SDS011;62988;55.776;37.544;2023-05-08T13:24:04;3.92;;;1.20;;
74503;SDS011;62988;55.776;37.544;2023-05-08T13:26:29;3.85;;;1.30;;
74503;SDS011;62988;55.776;37.544;2023-05-08T13:28:55;13.05;;;1.90;;
74503;SDS011;62988;55.776;37.544;2023-05-08T13:31:20;13.20;;;1.50;;
74503;SDS011;62988;55.776;37.544;2023-05-08T13:33:45;3.43;;;1.57;;
74503;SDS011;62988;55.776;37.544;2023-05-08T13:36:11;3.37;;;0.80;;
74503;SDS011;62988;55.776;37.544;2023-05-08T13:38:36;3.50;;;0.93;;
74503;SDS011;62988;55.776;37.544;2023-05-08T13:41:02;2.03;;;1.10;;
74503;SDS011;62988;55.776;37.544;2023-05-08T13:43:27;6.97;;;1.60;;
74503;SDS011;62988;55.776;37.544;2023-05-08T13:45:52;2.97;;;1.50;;
74503;SDS011;62988;55.776;37.544;2023-05-08T13:48:18;3.33;;;1.23;;
74503;SDS011;62988;55.776;37.544;2023-05-08T13:50:43;2.45;;;0.88;;
74503;SDS011;62988;55.776;37.544;2023-05-08T13:53:09;3.47;;;1.30;;
74503;SDS011;62988;55.776;37.544;2023-05-08T13:55:35;3.78;;;2.35;;
74503;SDS011;62988;55.776;37.544;2023-05-08T13:58:00;6.95;;;1.40;;
74503;SDS011;62988;55.776;37.544;2023-05-08T14:00:26;2.42;;;1.10;;
74503;SDS011;62988;55.776;37.544;2023-05-08T14:02:51;3.33;;;1.13;;
74503;SDS011;62988;55.776;37.544;2023-05-08T14:05:16;3.43;;;1.00;;
74503;SDS011;62988;55.776;37.544;2023-05-08T14:07:42;6.20;;;1.75;;
74503;SDS011;62988;55.776;37.544;2023-05-08T14:10:07;2.70;;;1.48;;
74503;SDS011;62988;55.776;37.544;2023-05-08T14:12:33;3.63;;;1.20;;
74503;SDS011;62988;55.776;37.544;2023-05-08T14:15:00;4.60;;;1.10;;
74503;SDS011;62988;55.776;37.544;2023-05-08T14:17:25;2.22;;;0.98;;
74503;SDS011;62988;55.776;37.544;2023-05-08T14:19:51;5.07;;;1.30;;
74503;SDS011;62988;55.776;37.544;2023-05-08T14:22:16;3.50;;;1.20;;
74503;SDS011;62988;55.776;37.544;2023-05-08T14:24:41;7.93;;;1.30;;
74503;SDS011;62988;55.776;37.544;2023-05-08T14:27:08;3.45;;;1.48;;
74503;SDS011;62988;55.776;37.544;2023-05-08T14:29:33;7.38;;;2.17;;
74503;SDS011;62988;55.776;37.544;2023-05-08T14:31:59;5.57;;;1.83;;
74503;SDS011;62988;55.776;37.544;2023-05-08T14:34:24;5.82;;;0.95;;
74503;SDS011;62988;55.776;37.544;2023-05-08T14:36:50;2.60;;;1.25;;
74503;SDS011;62988;55.776;37.544;2023-05-08T14:39:15;4.03;;;1.20;;
74503;SDS011;62988;55.776;37.544;2023-05-08T14:41:40;5.27;;;1.10;;
74503;SDS011;62988;55.776;37.544;2023-05-08T14:44:06;5.93;;;1.15;;
74503;SDS011;62988;55.776;37.544;2023-05-08T14:46:31;3.92;;;1.08;;
74503;SDS011;62988;55.776;37.544;2023-05-08T14:48:56;3.50;;;1.10;;
74503;SDS011;62988;55.776;37.544;2023-05-08T14:51:22;3.13;;;1.00;;
74503;SDS011;62988;55.776;37.544;2023-05-08T14:53:47;2.78;;;1.30;;
74503;SDS011;62988;55.776;37.544;2023-05-08T14:56:12;4.77;;;1.30;;
74503;SDS011;62988;55.776;37.544;2023-05-08T14:58:38;3.15;;;1.25;;
74503;SDS011;62988;55.776;37.544;2023-05-08T15:01:03;4.03;;;1.15;;
74503;SDS011;62988;55.776;37.544;2023-05-08T15:03:29;2.05;;;0.95;;
74503;SDS011;62988;55.776;37.544;2023-05-08T15:05:54;2.55;;;1.00;;
74503;SDS011;62988;55.776;37.544;2023-05-08T15:08:20;8.20;;;2.22;;
74503;SDS011;62988;55.776;37.544;2023-05-08T15:10:45;2.53;;;1.10;;
74503;SDS011;62988;55.776;37.544;2023-05-08T15:13:11;3.73;;;1.30;;
74503;SDS011;62988;55.776;37.544;2023-05-08T15:15:36;5.18;;;1.13;;
74503;SDS011;62988;55.776;37.544;2023-05-08T15:18:01;5.57;;;1.25;;
74503;SDS011;62988;55.776;37.544;2023-05-08T15:20:27;2.85;;;1.35;;
74503;SDS011;62988;55.776;37.544;2023-05-08T15:22:52;3.13;;;1.10;;
74503;SDS011;62988;55.776;37.544;2023-05-08T15:25:20;3.65;;;1.13;;
74503;SDS011;62988;55.776;37.544;2023-05-08T15:27:46;4.73;;;1.27;;